sensor_id;sensor_type;location;lat;lon;timestamp;temperature;humidity
11142;DHT22;5625;50.122;19.864;2023-02-15T00:02:09;3.60;99.90
11142;DHT22;5625;50.122;19.864;2023-02-15T00:04:37;3.60;99.90
11142;DHT22;5625;50.122;19.864;2023-02-15T00:07:17;3.60;99.90
11142;DHT22;5625;50.122;19.864;2023-02-15T00:09:46;3.60;99.90
11142;DHT22;5625;50.122;19.864;2023-02-15T00:12:15;3.60;99.90
11142;DHT22;5625;50.122;19.864;2023-02-15T00:14:43;3.60;99.90
11142;DHT22;5625;50.122;19.864;2023-02-15T00:17:11;3.60;99.90
11142;DHT22;5625;50.122;19.864;2023-02-15T00:19:39;3.60;99.90
11142;DHT22;5625;50.122;19.864;2023-02-15T00:22:08;3.60;99.90
11142;DHT22;5625;50.122;19.864;2023-02-15T00:24:37;3.60;99.90
11142;DHT22;5625;50.122;19.864;2023-02-15T00:27:05;3.60;99.90
11142;DHT22;5625;50.122;19.864;2023-02-15T00:29:33;3.60;99.90
11142;DHT22;5625;50.122;19.864;2023-02-15T00:32:01;3.60;99.90
11142;DHT22;5625;50.122;19.864;2023-02-15T00:34:29;3.60;99.90
11142;DHT22;5625;50.122;19.864;2023-02-15T00:36:57;3.50;99.90
11142;DHT22;5625;50.122;19.864;2023-02-15T00:39:25;3.60;99.90
11142;DHT22;5625;50.122;19.864;2023-02-15T00:41:55;3.60;99.90
11142;DHT22;5625;50.122;19.864;2023-02-15T00:44:23;3.50;99.90
11142;DHT22;5625;50.122;19.864;2023-02-15T00:46:51;3.50;99.90
11142;DHT22;5625;50.122;19.864;2023-02-15T00:49:19;3.60;99.90
11142;DHT22;5625;50.122;19.864;2023-02-15T00:51:47;3.60;99.90
11142;DHT22;5625;50.122;19.864;2023-02-15T00:54:15;3.60;99.90
11142;DHT22;5625;50.122;19.864;2023-02-15T00:56:43;3.50;99.90
11142;DHT22;5625;50.122;19.864;2023-02-15T00:59:12;3.60;99.90
11142;DHT22;5625;50.122;19.864;2023-02-15T01:01:40;3.50;99.90
11142;DHT22;5625;50.122;19.864;2023-02-15T01:04:08;3.50;99.90
11142;DHT22;5625;50.122;19.864;2023-02-15T01:06:36;3.50;99.90
11142;DHT22;5625;50.122;19.864;2023-02-15T01:09:05;3.50;99.90
11142;DHT22;5625;50.122;19.864;2023-02-15T01:11:34;3.50;99.90
11142;DHT22;5625;50.122;19.864;2023-02-15T01:14:03;3.50;99.90
11142;DHT22;5625;50.122;19.864;2023-02-15T01:16:33;3.50;99.90
11142;DHT22;5625;50.122;19.864;2023-02-15T01:19:01;3.50;99.90
11142;DHT22;5625;50.122;19.864;2023-02-15T01:21:32;3.50;99.90
11142;DHT22;5625;50.122;19.864;2023-02-15T01:24:01;3.50;99.90
11142;DHT22;5625;50.122;19.864;2023-02-15T01:26:29;3.50;99.90
11142;DHT22;5625;50.122;19.864;2023-02-15T01:28:57;3.50;99.90
11142;DHT22;5625;50.122;19.864;2023-02-15T01:31:25;3.50;99.90
11142;DHT22;5625;50.122;19.864;2023-02-15T01:33:55;3.50;99.90
11142;DHT22;5625;50.122;19.864;2023-02-15T01:36:23;3.50;99.90
11142;DHT22;5625;50.122;19.864;2023-02-15T01:38:51;3.50;99.90
11142;DHT22;5625;50.122;19.864;2023-02-15T01:41:19;3.50;99.90
11142;DHT22;5625;50.122;19.864;2023-02-15T01:43:55;3.50;99.90
11142;DHT22;5625;50.122;19.864;2023-02-15T01:46:27;3.40;99.90
11142;DHT22;5625;50.122;19.864;2023-02-15T01:49:03;3.40;99.90
11142;DHT22;5625;50.122;19.864;2023-02-15T01:51:36;3.40;99.90
11142;DHT22;5625;50.122;19.864;2023-02-15T01:54:09;3.40;99.90
11142;DHT22;5625;50.122;19.864;2023-02-15T01:56:40;3.40;99.90
11142;DHT22;5625;50.122;19.864;2023-02-15T01:59:12;3.40;99.90
11142;DHT22;5625;50.122;19.864;2023-02-15T02:01:42;3.40;99.90
11142;DHT22;5625;50.122;19.864;2023-02-15T02:04:16;3.40;99.90
11142;DHT22;5625;50.122;19.864;2023-02-15T02:06:46;3.40;99.90
11142;DHT22;5625;50.122;19.864;2023-02-15T02:09:16;3.40;99.90
11142;DHT22;5625;50.122;19.864;2023-02-15T02:11:46;3.40;99.90
11142;DHT22;5625;50.122;19.864;2023-02-15T02:14:15;3.40;99.90
11142;DHT22;5625;50.122;19.864;2023-02-15T02:16:51;3.40;99.90
11142;DHT22;5625;50.122;19.864;2023-02-15T02:19:47;3.40;99.90
11142;DHT22;5625;50.122;19.864;2023-02-15T02:22:44;3.40;99.90
11142;DHT22;5625;50.122;19.864;2023-02-15T02:25:42;3.40;99.90
11142;DHT22;5625;50.122;19.864;2023-02-15T02:28:31;3.40;99.90
11142;DHT22;5625;50.122;19.864;2023-02-15T02:31:29;3.30;99.90
11142;DHT22;5625;50.122;19.864;2023-02-15T02:34:06;3.30;99.90
11142;DHT22;5625;50.122;19.864;2023-02-15T02:36:41;3.30;99.90
11142;DHT22;5625;50.122;19.864;2023-02-15T02:39:23;3.30;99.90
11142;DHT22;5625;50.122;19.864;2023-02-15T02:41:58;3.30;99.90
11142;DHT22;5625;50.122;19.864;2023-02-15T02:44:33;3.30;99.90
11142;DHT22;5625;50.122;19.864;2023-02-15T02:47:05;3.30;99.90
11142;DHT22;5625;50.122;19.864;2023-02-15T02:49:39;3.30;99.90
11142;DHT22;5625;50.122;19.864;2023-02-15T02:52:36;3.30;99.90
11142;DHT22;5625;50.122;19.864;2023-02-15T02:55:06;3.30;99.90
11142;DHT22;5625;50.122;19.864;2023-02-15T02:57:38;3.30;99.90
11142;DHT22;5625;50.122;19.864;2023-02-15T03:00:08;3.30;99.90
11142;DHT22;5625;50.122;19.864;2023-02-15T03:02:39;3.30;99.90
11142;DHT22;5625;50.122;19.864;2023-02-15T03:05:16;3.30;99.90
11142;DHT22;5625;50.122;19.864;2023-02-15T03:07:49;3.30;99.90
11142;DHT22;5625;50.122;19.864;2023-02-15T03:10:21;3.30;99.90
11142;DHT22;5625;50.122;19.864;2023-02-15T03:12:50;3.30;99.90
11142;DHT22;5625;50.122;19.864;2023-02-15T03:15:22;3.30;99.90
11142;DHT22;5625;50.122;19.864;2023-02-15T03:17:57;3.30;99.90
11142;DHT22;5625;50.122;19.864;2023-02-15T03:20:29;3.20;99.90
11142;DHT22;5625;50.122;19.864;2023-02-15T03:23:02;3.20;99.90
11142;DHT22;5625;50.122;19.864;2023-02-15T03:25:33;3.20;99.90
11142;DHT22;5625;50.122;19.864;2023-02-15T03:28:04;3.20;99.90
11142;DHT22;5625;50.122;19.864;2023-02-15T03:30:35;3.20;99.90
11142;DHT22;5625;50.122;19.864;2023-02-15T03:33:05;3.20;99.90
11142;DHT22;5625;50.122;19.864;2023-02-15T03:35:38;3.20;99.90
11142;DHT22;5625;50.122;19.864;2023-02-15T03:38:09;3.20;99.90
11142;DHT22;5625;50.122;19.864;2023-02-15T03:40:41;3.10;99.90
11142;DHT22;5625;50.122;19.864;2023-02-15T03:43:32;3.20;99.90
11142;DHT22;5625;50.122;19.864;2023-02-15T03:46:06;3.20;99.90
11142;DHT22;5625;50.122;19.864;2023-02-15T03:48:39;3.20;99.90
11142;DHT22;5625;50.122;19.864;2023-02-15T03:51:10;3.10;99.90
11142;DHT22;5625;50.122;19.864;2023-02-15T03:54:00;3.20;99.90
11142;DHT22;5625;50.122;19.864;2023-02-15T03:56:28;3.20;99.90
11142;DHT22;5625;50.122;19.864;2023-02-15T03:58:56;3.10;99.90
11142;DHT22;5625;50.122;19.864;2023-02-15T04:01:48;3.10;99.90
11142;DHT22;5625;50.122;19.864;2023-02-15T04:04:32;3.10;99.90
11142;DHT22;5625;50.122;19.864;2023-02-15T04:07:02;3.20;99.90
11142;DHT22;5625;50.122;19.864;2023-02-15T04:09:31;3.10;99.90
11142;DHT22;5625;50.122;19.864;2023-02-15T04:12:17;3.10;99.90
11142;DHT22;5625;50.122;19.864;2023-02-15T04:14:45;3.20;99.90
11142;DHT22;5625;50.122;19.864;2023-02-15T04:17:32;3.20;99.90
11142;DHT22;5625;50.122;19.864;2023-02-15T04:20:00;3.10;99.90
11142;DHT22;5625;50.122;19.864;2023-02-15T04:22:45;3.10;99.90
11142;DHT22;5625;50.122;19.864;2023-02-15T04:25:32;3.10;99.90
11142;DHT22;5625;50.122;19.864;2023-02-15T04:28:00;3.10;99.90
11142;DHT22;5625;50.122;19.864;2023-02-15T04:30:28;3.10;99.90
11142;DHT22;5625;50.122;19.864;2023-02-15T04:32:56;3.00;99.90
11142;DHT22;5625;50.122;19.864;2023-02-15T04:35:25;3.10;99.90
11142;DHT22;5625;50.122;19.864;2023-02-15T04:37:53;3.10;99.90
11142;DHT22;5625;50.122;19.864;2023-02-15T04:40:22;3.10;99.90
11142;DHT22;5625;50.122;19.864;2023-02-15T04:42:51;3.10;99.90
11142;DHT22;5625;50.122;19.864;2023-02-15T04:45:19;3.10;99.90
11142;DHT22;5625;50.122;19.864;2023-02-15T04:47:47;3.10;99.90
11142;DHT22;5625;50.122;19.864;2023-02-15T04:50:16;3.10;99.90
11142;DHT22;5625;50.122;19.864;2023-02-15T04:52:44;3.00;99.90
11142;DHT22;5625;50.122;19.864;2023-02-15T04:55:12;3.00;99.90
11142;DHT22;5625;50.122;19.864;2023-02-15T04:57:40;3.00;99.90
11142;DHT22;5625;50.122;19.864;2023-02-15T05:00:11;3.10;99.90
11142;DHT22;5625;50.122;19.864;2023-02-15T05:02:39;3.10;99.90
11142;DHT22;5625;50.122;19.864;2023-02-15T05:05:07;3.10;99.90
11142;DHT22;5625;50.122;19.864;2023-02-15T05:07:36;3.10;99.90
11142;DHT22;5625;50.122;19.864;2023-02-15T05:10:07;3.00;99.90
11142;DHT22;5625;50.122;19.864;2023-02-15T05:12:35;3.00;99.90
11142;DHT22;5625;50.122;19.864;2023-02-15T05:15:04;3.00;99.90
11142;DHT22;5625;50.122;19.864;2023-02-15T05:17:33;3.00;99.90
11142;DHT22;5625;50.122;19.864;2023-02-15T05:20:02;3.00;99.90
11142;DHT22;5625;50.122;19.864;2023-02-15T05:22:30;3.00;99.90
11142;DHT22;5625;50.122;19.864;2023-02-15T05:24:58;3.00;99.90
11142;DHT22;5625;50.122;19.864;2023-02-15T05:27:43;3.00;99.90
11142;DHT22;5625;50.122;19.864;2023-02-15T05:30:31;3.00;99.90
11142;DHT22;5625;50.122;19.864;2023-02-15T05:33:00;3.00;99.90
11142;DHT22;5625;50.122;19.864;2023-02-15T05:35:28;3.00;99.90
11142;DHT22;5625;50.122;19.864;2023-02-15T05:37:59;3.00;99.90
11142;DHT22;5625;50.122;19.864;2023-02-15T05:40:27;3.00;99.90
11142;DHT22;5625;50.122;19.864;2023-02-15T05:42:56;3.00;99.90
11142;DHT22;5625;50.122;19.864;2023-02-15T05:45:24;3.00;99.90
11142;DHT22;5625;50.122;19.864;2023-02-15T05:47:52;3.00;99.90
11142;DHT22;5625;50.122;19.864;2023-02-15T05:50:21;3.00;99.90
11142;DHT22;5625;50.122;19.864;2023-02-15T05:52:50;3.00;99.90
11142;DHT22;5625;50.122;19.864;2023-02-15T05:55:18;3.00;99.90
11142;DHT22;5625;50.122;19.864;2023-02-15T05:57:46;3.00;99.90
11142;DHT22;5625;50.122;19.864;2023-02-15T06:00:18;3.00;99.90
11142;DHT22;5625;50.122;19.864;2023-02-15T06:02:46;3.00;99.90
11142;DHT22;5625;50.122;19.864;2023-02-15T06:05:14;3.00;99.90
11142;DHT22;5625;50.122;19.864;2023-02-15T06:07:44;3.00;99.90
11142;DHT22;5625;50.122;19.864;2023-02-15T06:10:12;2.90;99.90
11142;DHT22;5625;50.122;19.864;2023-02-15T06:12:43;2.90;99.90
11142;DHT22;5625;50.122;19.864;2023-02-15T06:15:11;2.90;99.90
11142;DHT22;5625;50.122;19.864;2023-02-15T06:17:44;2.90;99.90
11142;DHT22;5625;50.122;19.864;2023-02-15T06:20:14;3.00;99.90
11142;DHT22;5625;50.122;19.864;2023-02-15T06:22:43;3.00;99.90
11142;DHT22;5625;50.122;19.864;2023-02-15T06:25:11;2.90;99.90
11142;DHT22;5625;50.122;19.864;2023-02-15T06:27:41;2.90;99.90
11142;DHT22;5625;50.122;19.864;2023-02-15T06:30:10;2.90;99.90
11142;DHT22;5625;50.122;19.864;2023-02-15T06:32:39;2.90;99.90
11142;DHT22;5625;50.122;19.864;2023-02-15T06:35:08;3.00;99.90
11142;DHT22;5625;50.122;19.864;2023-02-15T06:37:36;3.00;99.90
11142;DHT22;5625;50.122;19.864;2023-02-15T06:40:07;3.00;99.90
11142;DHT22;5625;50.122;19.864;2023-02-15T06:42:35;2.90;99.90
11142;DHT22;5625;50.122;19.864;2023-02-15T06:45:03;3.00;99.90
11142;DHT22;5625;50.122;19.864;2023-02-15T06:47:34;3.00;99.90
11142;DHT22;5625;50.122;19.864;2023-02-15T06:50:03;3.00;99.90
11142;DHT22;5625;50.122;19.864;2023-02-15T06:52:31;3.00;99.90
11142;DHT22;5625;50.122;19.864;2023-02-15T06:54:59;3.00;99.90
11142;DHT22;5625;50.122;19.864;2023-02-15T06:57:28;3.00;99.90
11142;DHT22;5625;50.122;19.864;2023-02-15T06:59:56;3.00;99.90
11142;DHT22;5625;50.122;19.864;2023-02-15T07:02:25;3.00;99.90
11142;DHT22;5625;50.122;19.864;2023-02-15T07:04:56;3.00;99.90
11142;DHT22;5625;50.122;19.864;2023-02-15T07:07:24;3.00;99.90
11142;DHT22;5625;50.122;19.864;2023-02-15T07:09:52;3.00;99.90
11142;DHT22;5625;50.122;19.864;2023-02-15T07:12:22;3.00;99.90
11142;DHT22;5625;50.122;19.864;2023-02-15T07:15:10;3.00;99.90
11142;DHT22;5625;50.122;19.864;2023-02-15T07:17:39;3.00;99.90
11142;DHT22;5625;50.122;19.864;2023-02-15T07:20:10;3.00;99.90
11142;DHT22;5625;50.122;19.864;2023-02-15T07:22:38;3.00;99.90
11142;DHT22;5625;50.122;19.864;2023-02-15T07:25:09;3.00;99.90
11142;DHT22;5625;50.122;19.864;2023-02-15T07:27:38;3.10;99.90
11142;DHT22;5625;50.122;19.864;2023-02-15T07:30:09;3.10;99.90
11142;DHT22;5625;50.122;19.864;2023-02-15T07:32:39;3.10;99.90
11142;DHT22;5625;50.122;19.864;2023-02-15T07:35:31;3.00;99.90
11142;DHT22;5625;50.122;19.864;2023-02-15T07:37:59;3.10;99.90
11142;DHT22;5625;50.122;19.864;2023-02-15T07:40:27;3.10;99.90
11142;DHT22;5625;50.122;19.864;2023-02-15T07:42:58;3.10;99.90
11142;DHT22;5625;50.122;19.864;2023-02-15T07:45:28;3.20;99.90
11142;DHT22;5625;50.122;19.864;2023-02-15T07:47:56;3.10;99.90
11142;DHT22;5625;50.122;19.864;2023-02-15T07:50:24;3.10;99.90
11142;DHT22;5625;50.122;19.864;2023-02-15T07:52:52;3.10;99.90
11142;DHT22;5625;50.122;19.864;2023-02-15T07:55:22;3.10;99.90
11142;DHT22;5625;50.122;19.864;2023-02-15T07:57:51;3.20;99.90
11142;DHT22;5625;50.122;19.864;2023-02-15T08:00:21;3.20;99.90
11142;DHT22;5625;50.122;19.864;2023-02-15T08:02:54;3.20;99.90
11142;DHT22;5625;50.122;19.864;2023-02-15T08:05:43;3.20;99.90
11142;DHT22;5625;50.122;19.864;2023-02-15T08:08:15;3.30;99.90
11142;DHT22;5625;50.122;19.864;2023-02-15T08:11:01;3.30;99.90
11142;DHT22;5625;50.122;19.864;2023-02-15T08:13:48;3.30;99.90
11142;DHT22;5625;50.122;19.864;2023-02-15T08:16:24;3.30;99.90
11142;DHT22;5625;50.122;19.864;2023-02-15T08:18:55;3.40;99.90
11142;DHT22;5625;50.122;19.864;2023-02-15T08:21:25;3.40;99.90
11142;DHT22;5625;50.122;19.864;2023-02-15T08:23:53;3.40;99.90
11142;DHT22;5625;50.122;19.864;2023-02-15T08:26:21;3.50;99.90
11142;DHT22;5625;50.122;19.864;2023-02-15T08:28:51;3.60;99.90
11142;DHT22;5625;50.122;19.864;2023-02-15T08:31:19;3.60;99.90
11142;DHT22;5625;50.122;19.864;2023-02-15T08:33:49;3.70;99.90
11142;DHT22;5625;50.122;19.864;2023-02-15T08:36:21;3.70;99.90
11142;DHT22;5625;50.122;19.864;2023-02-15T08:38:50;3.80;99.90
11142;DHT22;5625;50.122;19.864;2023-02-15T08:41:20;3.80;99.90
11142;DHT22;5625;50.122;19.864;2023-02-15T08:43:50;3.80;99.90
11142;DHT22;5625;50.122;19.864;2023-02-15T08:46:21;3.90;99.90
11142;DHT22;5625;50.122;19.864;2023-02-15T08:48:50;3.80;99.90
11142;DHT22;5625;50.122;19.864;2023-02-15T08:51:23;3.90;99.90
11142;DHT22;5625;50.122;19.864;2023-02-15T08:53:53;4.00;99.90
11142;DHT22;5625;50.122;19.864;2023-02-15T08:56:25;4.10;99.90
11142;DHT22;5625;50.122;19.864;2023-02-15T08:58:54;4.20;99.90
11142;DHT22;5625;50.122;19.864;2023-02-15T09:01:25;4.30;99.90
11142;DHT22;5625;50.122;19.864;2023-02-15T09:04:00;4.30;99.90
11142;DHT22;5625;50.122;19.864;2023-02-15T09:06:29;4.30;99.90
11142;DHT22;5625;50.122;19.864;2023-02-15T09:08:57;4.30;99.90
11142;DHT22;5625;50.122;19.864;2023-02-15T09:11:27;4.40;99.90
11142;DHT22;5625;50.122;19.864;2023-02-15T09:13:58;4.60;99.90
11142;DHT22;5625;50.122;19.864;2023-02-15T09:16:27;4.80;99.90
11142;DHT22;5625;50.122;19.864;2023-02-15T09:18:59;5.10;99.90
11142;DHT22;5625;50.122;19.864;2023-02-15T09:21:39;5.20;99.90
11142;DHT22;5625;50.122;19.864;2023-02-15T09:24:13;5.40;99.90
11142;DHT22;5625;50.122;19.864;2023-02-15T09:26:45;6.00;99.90
11142;DHT22;5625;50.122;19.864;2023-02-15T09:29:14;6.90;99.90
11142;DHT22;5625;50.122;19.864;2023-02-15T09:31:44;7.20;97.20
11142;DHT22;5625;50.122;19.864;2023-02-15T09:34:14;7.80;91.60
11142;DHT22;5625;50.122;19.864;2023-02-15T09:36:44;8.10;20.30
11142;DHT22;5625;50.122;19.864;2023-02-15T09:39:15;8.70;1.00
11142;DHT22;5625;50.122;19.864;2023-02-15T09:42:14;9.30;99.90
11142;DHT22;5625;50.122;19.864;2023-02-15T09:45:09;9.50;99.90
11142;DHT22;5625;50.122;19.864;2023-02-15T09:48:10;10.00;99.90
11142;DHT22;5625;50.122;19.864;2023-02-15T09:50:54;10.40;99.90
11142;DHT22;5625;50.122;19.864;2023-02-15T09:53:37;10.80;99.90
11142;DHT22;5625;50.122;19.864;2023-02-15T09:56:18;11.20;1.00
11142;DHT22;5625;50.122;19.864;2023-02-15T09:58:55;11.60;1.00
11142;DHT22;5625;50.122;19.864;2023-02-15T10:01:35;11.50;1.00
11142;DHT22;5625;50.122;19.864;2023-02-15T10:04:21;11.60;99.90
11142;DHT22;5625;50.122;19.864;2023-02-15T10:07:00;11.20;1.00
11142;DHT22;5625;50.122;19.864;2023-02-15T10:09:51;10.80;99.90
11142;DHT22;5625;50.122;19.864;2023-02-15T10:12:48;10.50;71.00
11142;DHT22;5625;50.122;19.864;2023-02-15T10:15:44;10.50;99.90
11142;DHT22;5625;50.122;19.864;2023-02-15T10:18:31;10.80;99.90
11142;DHT22;5625;50.122;19.864;2023-02-15T10:21:07;11.00;99.90
11142;DHT22;5625;50.122;19.864;2023-02-15T10:24:03;11.00;1.00
11142;DHT22;5625;50.122;19.864;2023-02-15T10:26:43;11.50;1.00
11142;DHT22;5625;50.122;19.864;2023-02-15T10:29:19;11.80;99.90
11142;DHT22;5625;50.122;19.864;2023-02-15T10:31:51;11.90;1.00
11142;DHT22;5625;50.122;19.864;2023-02-15T10:34:29;12.10;99.90
11142;DHT22;5625;50.122;19.864;2023-02-15T10:37:10;11.80;99.90
11142;DHT22;5625;50.122;19.864;2023-02-15T10:39:49;11.90;1.00
11142;DHT22;5625;50.122;19.864;2023-02-15T10:42:28;11.50;99.90
11142;DHT22;5625;50.122;19.864;2023-02-15T10:45:10;11.50;99.90
11142;DHT22;5625;50.122;19.864;2023-02-15T10:47:52;11.10;99.90
11142;DHT22;5625;50.122;19.864;2023-02-15T10:50:46;10.80;1.00
11142;DHT22;5625;50.122;19.864;2023-02-15T10:56:17;10.50;1.00
11142;DHT22;5625;50.122;19.864;2023-02-15T10:59:01;10.30;1.00
11142;DHT22;5625;50.122;19.864;2023-02-15T11:01:35;10.10;99.90
11142;DHT22;5625;50.122;19.864;2023-02-15T11:04:29;9.90;99.90
11142;DHT22;5625;50.122;19.864;2023-02-15T11:07:04;9.60;99.90
11142;DHT22;5625;50.122;19.864;2023-02-15T11:09:38;9.30;99.90
11142;DHT22;5625;50.122;19.864;2023-02-15T11:12:11;9.20;99.90
11142;DHT22;5625;50.122;19.864;2023-02-15T11:14:45;9.10;99.90
11142;DHT22;5625;50.122;19.864;2023-02-15T11:17:19;9.10;1.00
11142;DHT22;5625;50.122;19.864;2023-02-15T11:19:55;8.90;99.90
11142;DHT22;5625;50.122;19.864;2023-02-15T11:22:30;8.80;1.00
11142;DHT22;5625;50.122;19.864;2023-02-15T11:25:01;8.70;1.00
11142;DHT22;5625;50.122;19.864;2023-02-15T11:27:31;8.50;1.00
11142;DHT22;5625;50.122;19.864;2023-02-15T11:30:04;8.30;1.00
11142;DHT22;5625;50.122;19.864;2023-02-15T11:32:39;8.30;1.00
11142;DHT22;5625;50.122;19.864;2023-02-15T11:35:20;8.30;1.00
11142;DHT22;5625;50.122;19.864;2023-02-15T11:37:50;8.20;1.00
11142;DHT22;5625;50.122;19.864;2023-02-15T11:40:22;8.20;1.00
11142;DHT22;5625;50.122;19.864;2023-02-15T11:42:55;8.10;1.00
11142;DHT22;5625;50.122;19.864;2023-02-15T11:45:28;8.10;1.00
11142;DHT22;5625;50.122;19.864;2023-02-15T11:47:58;8.00;1.00
11142;DHT22;5625;50.122;19.864;2023-02-15T11:50:29;8.00;1.00
11142;DHT22;5625;50.122;19.864;2023-02-15T11:53:01;8.00;1.00
11142;DHT22;5625;50.122;19.864;2023-02-15T11:55:30;8.00;1.00
11142;DHT22;5625;50.122;19.864;2023-02-15T11:58:04;7.90;1.00
11142;DHT22;5625;50.122;19.864;2023-02-15T12:00:39;7.90;13.40
11142;DHT22;5625;50.122;19.864;2023-02-15T12:03:14;7.90;2.20
11142;DHT22;5625;50.122;19.864;2023-02-15T12:05:46;7.80;3.40
11142;DHT22;5625;50.122;19.864;2023-02-15T12:08:18;7.90;14.10
11142;DHT22;5625;50.122;19.864;2023-02-15T12:11:03;7.80;7.70
11142;DHT22;5625;50.122;19.864;2023-02-15T12:13:34;7.80;13.40
11142;DHT22;5625;50.122;19.864;2023-02-15T12:16:09;7.80;13.10
11142;DHT22;5625;50.122;19.864;2023-02-15T12:18:42;7.80;12.90
11142;DHT22;5625;50.122;19.864;2023-02-15T12:21:12;7.80;17.40
11142;DHT22;5625;50.122;19.864;2023-02-15T12:23:47;7.70;12.40
11142;DHT22;5625;50.122;19.864;2023-02-15T12:26:23;7.70;9.00
11142;DHT22;5625;50.122;19.864;2023-02-15T12:28:52;7.70;23.80
11142;DHT22;5625;50.122;19.864;2023-02-15T12:31:28;7.70;25.10
11142;DHT22;5625;50.122;19.864;2023-02-15T12:34:02;7.70;16.80
11142;DHT22;5625;50.122;19.864;2023-02-15T12:36:39;7.70;21.10
11142;DHT22;5625;50.122;19.864;2023-02-15T12:39:22;7.70;23.60
11142;DHT22;5625;50.122;19.864;2023-02-15T12:41:59;7.70;20.10
11142;DHT22;5625;50.122;19.864;2023-02-15T12:44:30;7.70;27.40
11142;DHT22;5625;50.122;19.864;2023-02-15T12:47:01;7.70;29.70
11142;DHT22;5625;50.122;19.864;2023-02-15T12:49:31;7.60;41.10
11142;DHT22;5625;50.122;19.864;2023-02-15T12:52:03;7.70;46.30
11142;DHT22;5625;50.122;19.864;2023-02-15T12:54:40;7.70;32.20
11142;DHT22;5625;50.122;19.864;2023-02-15T12:57:30;7.70;39.50
11142;DHT22;5625;50.122;19.864;2023-02-15T12:59:59;7.70;41.90
11142;DHT22;5625;50.122;19.864;2023-02-15T13:02:35;7.70;43.40
11142;DHT22;5625;50.122;19.864;2023-02-15T13:05:25;7.70;37.70
11142;DHT22;5625;50.122;19.864;2023-02-15T13:07:56;7.70;35.20
11142;DHT22;5625;50.122;19.864;2023-02-15T13:10:27;7.70;49.40
11142;DHT22;5625;50.122;19.864;2023-02-15T13:12:56;7.70;51.00
11142;DHT22;5625;50.122;19.864;2023-02-15T13:15:28;7.70;47.40
11142;DHT22;5625;50.122;19.864;2023-02-15T13:18:01;7.70;46.50
11142;DHT22;5625;50.122;19.864;2023-02-15T13:20:32;7.70;53.00
11142;DHT22;5625;50.122;19.864;2023-02-15T13:23:08;7.70;45.80
11142;DHT22;5625;50.122;19.864;2023-02-15T13:25:45;7.70;48.00
11142;DHT22;5625;50.122;19.864;2023-02-15T13:28:21;7.70;45.90
11142;DHT22;5625;50.122;19.864;2023-02-15T13:30:50;7.70;46.30
11142;DHT22;5625;50.122;19.864;2023-02-15T13:33:25;7.70;52.50
11142;DHT22;5625;50.122;19.864;2023-02-15T13:36:01;7.70;49.60
11142;DHT22;5625;50.122;19.864;2023-02-15T13:38:48;7.70;51.60
11142;DHT22;5625;50.122;19.864;2023-02-15T13:41:21;7.60;53.20
11142;DHT22;5625;50.122;19.864;2023-02-15T13:43:57;7.70;51.50
11142;DHT22;5625;50.122;19.864;2023-02-15T13:46:45;7.70;59.20
11142;DHT22;5625;50.122;19.864;2023-02-15T13:49:29;7.70;59.40
11142;DHT22;5625;50.122;19.864;2023-02-15T13:52:05;7.70;56.30
11142;DHT22;5625;50.122;19.864;2023-02-15T13:54:47;7.70;48.10
11142;DHT22;5625;50.122;19.864;2023-02-15T13:57:31;7.70;50.60
11142;DHT22;5625;50.122;19.864;2023-02-15T14:00:10;7.70;52.70
11142;DHT22;5625;50.122;19.864;2023-02-15T14:06:16;7.60;55.60
11142;DHT22;5625;50.122;19.864;2023-02-15T14:09:02;7.60;58.60
11142;DHT22;5625;50.122;19.864;2023-02-15T14:11:39;7.60;52.80
11142;DHT22;5625;50.122;19.864;2023-02-15T14:14:36;7.60;58.50
11142;DHT22;5625;50.122;19.864;2023-02-15T14:17:15;7.60;55.80
11142;DHT22;5625;50.122;19.864;2023-02-15T14:19:53;7.60;57.60
11142;DHT22;5625;50.122;19.864;2023-02-15T14:22:30;7.60;57.10
11142;DHT22;5625;50.122;19.864;2023-02-15T14:25:17;7.60;61.50
11142;DHT22;5625;50.122;19.864;2023-02-15T14:27:54;7.60;60.20
11142;DHT22;5625;50.122;19.864;2023-02-15T14:30:26;7.50;56.40
11142;DHT22;5625;50.122;19.864;2023-02-15T14:33:01;7.50;60.00
11142;DHT22;5625;50.122;19.864;2023-02-15T14:35:32;7.50;67.30
11142;DHT22;5625;50.122;19.864;2023-02-15T14:38:07;7.50;68.60
11142;DHT22;5625;50.122;19.864;2023-02-15T14:40:48;7.50;70.90
11142;DHT22;5625;50.122;19.864;2023-02-15T14:43:42;7.50;71.80
11142;DHT22;5625;50.122;19.864;2023-02-15T14:46:24;7.50;71.90
11142;DHT22;5625;50.122;19.864;2023-02-15T14:48:58;7.50;70.90
11142;DHT22;5625;50.122;19.864;2023-02-15T14:51:54;7.50;69.70
11142;DHT22;5625;50.122;19.864;2023-02-15T14:54:58;7.50;69.50
11142;DHT22;5625;50.122;19.864;2023-02-15T14:57:29;7.50;71.10
11142;DHT22;5625;50.122;19.864;2023-02-15T15:02:57;7.50;74.20
11142;DHT22;5625;50.122;19.864;2023-02-15T15:05:32;7.50;72.90
11142;DHT22;5625;50.122;19.864;2023-02-15T15:08:04;7.50;71.00
11142;DHT22;5625;50.122;19.864;2023-02-15T15:10:38;7.50;73.20
11142;DHT22;5625;50.122;19.864;2023-02-15T15:22:35;7.40;79.50
11142;DHT22;5625;50.122;19.864;2023-02-15T15:25:09;7.30;80.10
11142;DHT22;5625;50.122;19.864;2023-02-15T15:27:55;7.30;79.90
11142;DHT22;5625;50.122;19.864;2023-02-15T15:31:00;7.20;82.40
11142;DHT22;5625;50.122;19.864;2023-02-15T15:37:32;7.20;86.30
11142;DHT22;5625;50.122;19.864;2023-02-15T15:46:52;7.30;81.50
11142;DHT22;5625;50.122;19.864;2023-02-15T15:49:28;7.20;86.50
11142;DHT22;5625;50.122;19.864;2023-02-15T15:52:00;7.00;90.50
11142;DHT22;5625;50.122;19.864;2023-02-15T15:54:30;7.00;91.90
11142;DHT22;5625;50.122;19.864;2023-02-15T15:57:00;6.90;92.50
11142;DHT22;5625;50.122;19.864;2023-02-15T15:59:32;6.80;93.60
11142;DHT22;5625;50.122;19.864;2023-02-15T16:02:06;6.80;94.50
11142;DHT22;5625;50.122;19.864;2023-02-15T16:04:35;6.70;95.60
11142;DHT22;5625;50.122;19.864;2023-02-15T16:07:20;6.60;96.40
11142;DHT22;5625;50.122;19.864;2023-02-15T16:09:55;6.60;97.60
11142;DHT22;5625;50.122;19.864;2023-02-15T16:12:23;6.50;99.20
11142;DHT22;5625;50.122;19.864;2023-02-15T16:14:54;6.50;99.80
11142;DHT22;5625;50.122;19.864;2023-02-15T16:17:24;6.40;99.90
11142;DHT22;5625;50.122;19.864;2023-02-15T16:19:57;6.40;99.90
11142;DHT22;5625;50.122;19.864;2023-02-15T16:22:27;6.30;99.90
11142;DHT22;5625;50.122;19.864;2023-02-15T16:25:14;6.20;99.90
11142;DHT22;5625;50.122;19.864;2023-02-15T16:27:45;6.20;99.90
11142;DHT22;5625;50.122;19.864;2023-02-15T16:30:21;6.10;99.90
11142;DHT22;5625;50.122;19.864;2023-02-15T16:32:53;6.10;99.90
11142;DHT22;5625;50.122;19.864;2023-02-15T16:35:22;6.00;99.90
11142;DHT22;5625;50.122;19.864;2023-02-15T16:37:51;6.00;99.90
11142;DHT22;5625;50.122;19.864;2023-02-15T16:40:27;6.00;99.90
11142;DHT22;5625;50.122;19.864;2023-02-15T16:43:00;5.90;99.90
11142;DHT22;5625;50.122;19.864;2023-02-15T16:45:31;5.80;99.90
11142;DHT22;5625;50.122;19.864;2023-02-15T16:48:00;5.80;99.90
11142;DHT22;5625;50.122;19.864;2023-02-15T16:50:37;5.80;99.90
11142;DHT22;5625;50.122;19.864;2023-02-15T16:53:12;5.70;99.90
11142;DHT22;5625;50.122;19.864;2023-02-15T16:55:49;5.60;99.90
11142;DHT22;5625;50.122;19.864;2023-02-15T16:58:27;5.60;99.90
11142;DHT22;5625;50.122;19.864;2023-02-15T17:01:00;5.60;99.90